createdAt,value
2019-05-29T00:02:20.297Z,97888.77
2019-05-29T00:04:50.769Z,97890.16
2019-05-29T00:07:20.945Z,97894.00
2019-05-29T00:09:51.259Z,97900.25
2019-05-29T00:12:22.315Z,97903.19
2019-05-29T00:14:52.464Z,97903.30
2019-05-29T00:17:22.818Z,97902.14
2019-05-29T00:19:53.077Z,97902.06
2019-05-29T00:22:23.248Z,97905.77
2019-05-29T00:24:54.955Z,97909.20
2019-05-29T00:27:25.311Z,97901.57
2019-05-29T00:29:55.735Z,97909.62
2019-05-29T00:32:25.956Z,97911.06
2019-05-29T00:34:56.155Z,97908.09
2019-05-29T00:37:26.799Z,97913.37
2019-05-29T00:39:58.602Z,97916.30
2019-05-29T00:42:29.837Z,97919.16
2019-05-29T00:45:00.221Z,97915.88
2019-05-29T00:47:30.555Z,97919.20
2019-05-29T00:49:59.764Z,97921.63
2019-05-29T00:52:30.169Z,97915.91
2019-05-29T00:54:59.322Z,97917.50
2019-05-29T00:57:29.569Z,97917.57
2019-05-29T00:59:59.756Z,97924.59
2019-05-29T01:02:30.318Z,97928.84
2019-05-29T01:05:00.653Z,97938.62
2019-05-29T01:07:33.539Z,97930.61
2019-05-29T01:10:03.841Z,97934.33
2019-05-29T01:12:34.072Z,97945.40
2019-05-29T01:15:04.796Z,97946.28
2019-05-29T01:17:38.223Z,97949.82
2019-05-29T01:20:08.860Z,97950.59
2019-05-29T01:22:39.305Z,97954.30
2019-05-29T01:25:09.618Z,97955.34
2019-05-29T01:27:39.853Z,97958.63
2019-05-29T01:30:10.488Z,97958.86
2019-05-29T01:32:41.040Z,97958.82
2019-05-29T01:35:11.506Z,97958.52
2019-05-29T01:37:41.841Z,97957.09
2019-05-29T01:40:20.094Z,97965.86
2019-05-29T01:42:44.850Z,97959.11
2019-05-29T01:45:15.508Z,97962.82
2019-05-29T01:47:45.949Z,97961.66
2019-05-29T01:50:17.691Z,97960.81
2019-05-29T01:52:47.901Z,97960.55
2019-05-29T01:55:18.196Z,97972.08
2019-05-29T01:57:48.377Z,97972.55
2019-05-29T02:00:20.129Z,97969.55
2019-05-29T02:02:50.380Z,97967.03
2019-05-29T02:05:21.912Z,97968.66
2019-05-29T02:07:52.691Z,97968.38
2019-05-29T02:10:26.307Z,97980.77
2019-05-29T02:12:56.738Z,97975.30
2019-05-29T02:20:34.626Z,97993.97
2019-05-29T02:23:05.522Z,97998.36
2019-05-29T02:25:36.456Z,98005.86
2019-05-29T02:28:06.887Z,97998.87
2019-05-29T02:30:37.105Z,98006.36
2019-05-29T02:33:07.313Z,98006.36
2019-05-29T02:35:37.723Z,97999.06
2019-05-29T02:38:07.832Z,98007.44
2019-05-29T02:40:38.186Z,98012.34
2019-05-29T02:43:08.422Z,98012.06
2019-05-29T02:45:53.954Z,98015.31
2019-05-29T02:48:10.533Z,98014.77
2019-05-29T02:50:40.871Z,98017.51
2019-05-29T02:53:11.244Z,98018.02
2019-05-29T02:55:41.421Z,98025.53
2019-05-29T02:58:11.899Z,98020.91
2019-05-29T03:00:54.143Z,98029.47
2019-05-29T03:03:26.548Z,98025.16
2019-05-29T03:05:57.455Z,98027.85
2019-05-29T03:08:31.166Z,98021.98
2019-05-29T03:10:59.704Z,98030.36
2019-05-29T03:13:31.601Z,98033.84
2019-05-29T03:16:10.426Z,98034.45
2019-05-29T03:18:35.022Z,98040.13
2019-05-29T03:21:05.459Z,98040.97
2019-05-29T03:23:36.493Z,98042.93
2019-05-29T03:26:06.917Z,98047.25
2019-05-29T03:28:38.329Z,98051.61
2019-05-29T03:31:09.213Z,98054.66
2019-05-29T03:33:48.299Z,98059.24
2019-05-29T03:36:11.437Z,98066.53
2019-05-29T03:38:41.719Z,98064.14
2019-05-29T03:41:12.166Z,98072.78
2019-05-29T03:43:42.391Z,98071.94
2019-05-29T03:46:29.013Z,98078.69
2019-05-29T03:48:44.684Z,98084.86
2019-05-29T03:51:14.885Z,98082.13
2019-05-29T03:53:45.205Z,98086.11
2019-05-29T03:56:15.474Z,98089.13
2019-05-29T03:58:45.942Z,98099.14
2019-05-29T04:01:16.485Z,98103.23
2019-05-29T04:03:46.879Z,98107.89
2019-05-29T04:06:17.132Z,98112.14
2019-05-29T04:08:47.809Z,98117.34
2019-05-29T04:11:19.605Z,98120.52
2019-05-29T04:13:50.326Z,98128.02
2019-05-29T04:16:21.744Z,98127.75
2019-05-29T04:18:52.303Z,98124.20
2019-05-29T04:21:23.833Z,98124.91
2019-05-29T04:23:55.188Z,98136.48
2019-05-29T04:26:27.945Z,98134.76
2019-05-29T04:28:58.768Z,98138.97
2019-05-29T04:31:29.971Z,98141.09
2019-05-29T04:34:00.577Z,98139.41
2019-05-29T04:36:32.847Z,98142.27
2019-05-29T04:39:03.069Z,98147.56
2019-05-29T04:41:34.654Z,98144.98
2019-05-29T04:44:06.105Z,98152.91
2019-05-29T04:46:38.338Z,98153.91
2019-05-29T04:49:11.755Z,98157.34
2019-05-29T04:51:42.080Z,98158.84
2019-05-29T04:54:12.368Z,98160.89
2019-05-29T04:56:42.618Z,98170.02
2019-05-29T04:59:12.794Z,98171.37
2019-05-29T05:01:43.157Z,98171.59
2019-05-29T05:04:13.821Z,98186.08
2019-05-29T05:06:44.217Z,98175.72
2019-05-29T05:09:14.635Z,98188.59
2019-05-29T05:11:45.488Z,98189.70
2019-05-29T05:14:17.459Z,98197.47
2019-05-29T05:16:48.546Z,98200.64
2019-05-29T05:19:18.862Z,98203.30
2019-05-29T05:21:49.240Z,98208.71
2019-05-29T05:24:19.583Z,98208.71
2019-05-29T05:26:49.847Z,98211.30
2019-05-29T05:29:20.068Z,98209.00
2019-05-29T05:31:51.466Z,98207.34
2019-05-29T05:34:21.907Z,98214.78
2019-05-29T05:36:55.335Z,98209.97
2019-05-29T05:39:25.651Z,98210.98
2019-05-29T05:41:58.892Z,98213.42
2019-05-29T05:44:29.126Z,98215.30
2019-05-29T05:46:59.941Z,98218.92
2019-05-29T05:49:31.225Z,98218.16
2019-05-29T05:52:02.784Z,98218.19
2019-05-29T05:54:33.431Z,98226.45
2019-05-29T05:57:03.996Z,98222.28
2019-05-29T05:59:35.769Z,98229.79
2019-05-29T06:02:06.075Z,98232.86
2019-05-29T06:04:36.385Z,98234.70
2019-05-29T06:07:06.575Z,98237.74
2019-05-29T06:09:38.145Z,98240.39
2019-05-29T06:12:08.669Z,98243.92
2019-05-29T06:14:40.561Z,98243.67
2019-05-29T06:17:12.079Z,98247.08
2019-05-29T06:19:43.119Z,98248.18
2019-05-29T06:22:13.307Z,98258.61
2019-05-29T06:24:43.791Z,98258.28
2019-05-29T06:27:14.431Z,98259.15
2019-05-29T06:29:44.856Z,98256.09
2019-05-29T06:32:15.142Z,98263.64
2019-05-29T06:34:45.637Z,98266.67
2019-05-29T06:37:16.180Z,98271.86
2019-05-29T06:39:46.777Z,98265.09
2019-05-29T06:42:17.006Z,98269.49
2019-05-29T06:44:49.009Z,98280.48
2019-05-29T06:47:19.171Z,98284.91
2019-05-29T06:49:49.506Z,98286.69
2019-05-29T06:52:19.793Z,98290.55
2019-05-29T06:54:50.160Z,98297.14
2019-05-29T06:57:20.331Z,98307.17
2019-05-29T06:59:50.620Z,98303.11
2019-05-29T07:02:21.306Z,98308.35
2019-05-29T07:04:51.560Z,98308.30
2019-05-29T07:07:21.741Z,98312.11
2019-05-29T07:09:51.948Z,98319.98
2019-05-29T07:12:22.202Z,98321.23
2019-05-29T07:14:52.653Z,98327.02
2019-05-29T07:17:22.981Z,98330.00
2019-05-29T07:20:02.938Z,98333.20
2019-05-29T07:22:25.884Z,98330.09
2019-05-29T07:24:56.120Z,98331.68
2019-05-29T07:27:26.339Z,98334.30
2019-05-29T07:29:56.652Z,98334.56
2019-05-29T07:32:27.007Z,98338.00
2019-05-29T07:35:03.526Z,98341.70
2019-05-29T07:37:29.252Z,98344.55
2019-05-29T07:39:59.423Z,98349.84
2019-05-29T07:42:30.177Z,98352.72
2019-05-29T07:45:00.503Z,98350.83
2019-05-29T07:47:30.890Z,98349.08
2019-05-29T07:50:01.257Z,98355.95
2019-05-29T07:52:33.251Z,98352.75
2019-05-29T07:55:03.562Z,98358.72
2019-05-29T07:57:33.925Z,98356.61
2019-05-29T08:00:04.676Z,98359.20
2019-05-29T08:02:35.170Z,98363.92
2019-05-29T08:05:06.966Z,98361.55
2019-05-29T08:07:37.152Z,98364.59
2019-05-29T08:10:07.876Z,98372.42
2019-05-29T08:12:43.926Z,98368.78
2019-05-29T08:15:10.190Z,98368.09
2019-05-29T08:17:42.073Z,98371.31
2019-05-29T08:20:13.990Z,98374.19
2019-05-29T08:22:44.535Z,98376.21
2019-05-29T08:25:14.897Z,98374.84
2019-05-29T08:27:46.670Z,98376.34
2019-05-29T08:30:17.129Z,98376.67
2019-05-29T08:32:49.102Z,98381.39
2019-05-29T08:35:19.359Z,98382.02
2019-05-29T08:37:49.734Z,98388.50
2019-05-29T08:40:20.346Z,98396.09
2019-05-29T08:42:51.495Z,98394.52
2019-05-29T08:45:24.933Z,98393.23
2019-05-29T08:47:55.338Z,98394.20
2019-05-29T08:50:25.567Z,98400.39
2019-05-29T08:52:55.835Z,98399.44
2019-05-29T08:55:27.559Z,98397.42
2019-05-29T08:57:57.945Z,98403.45
2019-05-29T09:00:28.818Z,98404.67
2019-05-29T09:02:59.126Z,98412.13
2019-05-29T09:05:29.679Z,98409.11
2019-05-29T09:07:59.960Z,98411.43
2019-05-29T09:10:32.024Z,98409.36
2019-05-29T09:13:05.041Z,98408.31
2019-05-29T09:15:34.425Z,98412.51
2019-05-29T09:18:07.418Z,98411.62
2019-05-29T09:21:01.117Z,98410.20
2019-05-29T09:23:09.671Z,98409.93
2019-05-29T09:25:39.907Z,98415.86
2019-05-29T09:28:18.406Z,98412.98
2019-05-29T09:30:48.211Z,98417.02
2019-05-29T09:33:21.368Z,98419.89
2019-05-29T09:35:50.941Z,98420.13
2019-05-29T09:38:22.924Z,98423.45
2019-05-29T09:40:54.782Z,98426.16
2019-05-29T09:43:29.751Z,98426.35
2019-05-29T09:45:57.313Z,98429.38
2019-05-29T09:48:48.545Z,98429.91
2019-05-29T09:51:20.780Z,98432.22
2019-05-29T09:53:40.842Z,98433.94
2019-05-29T09:56:11.240Z,98428.28
2019-05-29T09:58:41.694Z,98433.36
2019-05-29T10:01:22.674Z,98438.53
2019-05-29T10:03:44.867Z,98440.20
2019-05-29T10:06:15.209Z,98440.93
2019-05-29T10:08:45.599Z,98441.41
2019-05-29T10:11:16.186Z,98443.82
2019-05-29T10:13:46.893Z,98442.53
2019-05-29T10:16:17.378Z,98443.30
2019-05-29T10:18:48.272Z,98451.39
2019-05-29T10:21:18.963Z,98451.92
2019-05-29T10:23:50.132Z,98450.48
2019-05-29T10:26:20.624Z,98451.41
2019-05-29T10:31:24.177Z,98456.20
2019-05-29T10:33:55.006Z,98458.73
2019-05-29T10:34:38.778Z,98456.26
2019-05-29T10:36:25.655Z,98457.19
2019-05-29T10:38:56.756Z,98461.19
2019-05-29T10:41:27.487Z,98460.16
2019-05-29T10:43:58.122Z,98450.53
2019-05-29T10:46:28.545Z,98454.59
2019-05-29T10:48:59.277Z,98453.55
2019-05-29T10:51:33.182Z,98453.93
2019-05-29T10:54:03.765Z,98452.42
2019-05-29T10:56:34.613Z,98460.09
2019-05-29T10:59:05.164Z,98459.38
2019-05-29T11:01:36.044Z,98457.44
2019-05-29T11:04:07.378Z,98463.39
2019-05-29T11:06:40.824Z,98459.11
2019-05-29T11:09:17.180Z,98456.17
2019-05-29T11:11:48.430Z,98456.17
2019-05-29T11:14:18.858Z,98458.28
2019-05-29T11:16:53.080Z,98458.07
2019-05-29T11:19:27.890Z,98460.69
2019-05-29T11:22:01.702Z,98456.27
2019-05-29T11:24:30.302Z,98458.78
2019-05-29T11:27:01.541Z,98456.87
2019-05-29T11:29:32.804Z,98464.38
2019-05-29T11:32:03.163Z,98461.52
2019-05-29T11:34:33.257Z,98472.50
2019-05-29T11:37:03.387Z,98468.08
2019-05-29T11:39:33.689Z,98473.91
2019-05-29T11:42:04.255Z,98476.48
2019-05-29T11:44:34.598Z,98476.84
2019-05-29T11:47:04.887Z,98484.55
2019-05-29T11:49:38.289Z,98481.92
2019-05-29T11:52:23.582Z,98479.02
2019-05-29T11:54:40.298Z,98470.03
2019-05-29T11:57:10.351Z,98479.73
2019-05-29T11:59:42.255Z,98477.60
2019-05-29T12:02:12.994Z,98487.09
2019-05-29T12:04:43.243Z,98486.55
2019-05-29T12:07:13.581Z,98482.44
2019-05-29T12:09:44.308Z,98484.34
2019-05-29T12:12:14.721Z,98480.52
2019-05-29T12:14:58.831Z,98487.16
2019-05-29T12:17:17.498Z,98480.17
2019-05-29T12:19:49.653Z,98479.11
2019-05-29T12:22:21.115Z,98476.69
2019-05-29T12:24:52.498Z,98477.73
2019-05-29T12:27:22.856Z,98486.44
2019-05-29T12:29:53.187Z,98483.35
2019-05-29T12:32:23.939Z,98480.59
2019-05-29T12:34:55.748Z,98482.09
2019-05-29T12:37:27.043Z,98480.79
2019-05-29T12:39:58.229Z,98469.05
2019-05-29T12:42:30.575Z,98476.83
2019-05-29T12:45:02.009Z,98474.70
2019-05-29T12:47:33.108Z,98467.94
2019-05-29T12:50:05.999Z,98466.33
2019-05-29T12:52:36.809Z,98471.52
2019-05-29T12:55:07.766Z,98469.95
2019-05-29T12:57:38.506Z,98472.94
2019-05-29T13:00:10.321Z,98476.06
2019-05-29T13:02:41.052Z,98475.88
2019-05-29T13:05:20.077Z,98477.31
2019-05-29T13:07:47.123Z,98497.48
2019-05-29T13:10:29.848Z,98488.52
2019-05-29T13:12:51.349Z,98487.31
2019-05-29T13:15:22.518Z,98498.80
2019-05-29T13:17:59.763Z,98497.59
2019-05-29T13:20:26.145Z,98504.52
2019-05-29T13:22:57.656Z,98508.66
2019-05-29T13:25:28.618Z,98516.87
2019-05-29T13:27:59.957Z,98517.38
2019-05-29T13:30:31.197Z,98521.83
2019-05-29T13:33:03.562Z,98519.80
2019-05-29T13:35:34.213Z,98524.86
2019-05-29T13:38:05.309Z,98519.85
2019-05-29T13:40:35.787Z,98517.34
2019-05-29T13:43:14.705Z,98514.92
2019-05-29T13:45:38.927Z,98520.44
2019-05-29T13:48:10.693Z,98511.04
2019-05-29T13:50:42.190Z,98521.95
2019-05-29T13:53:12.732Z,98516.41
2019-05-29T13:55:43.417Z,98521.30
2019-05-29T13:58:14.145Z,98517.33
2019-05-29T14:00:45.134Z,98513.66
2019-05-29T14:03:15.995Z,98523.67
2019-05-29T14:05:46.469Z,98523.72
2019-05-29T14:08:17.055Z,98520.09
2019-05-29T14:10:47.769Z,98522.97
2019-05-29T14:13:18.673Z,98523.96
2019-05-29T14:15:52.204Z,98525.23
2019-05-29T14:18:22.884Z,98534.95
2019-05-29T14:20:53.568Z,98528.81
2019-05-29T14:23:24.397Z,98530.97
2019-05-29T14:25:54.773Z,98528.48
2019-05-29T14:28:25.607Z,98533.27
2019-05-29T14:30:56.243Z,98542.12
2019-05-29T14:33:27.616Z,98540.54
2019-05-29T14:35:58.191Z,98537.55
2019-05-29T14:38:28.558Z,98535.38
2019-05-29T14:40:58.951Z,98545.45
2019-05-29T14:43:29.324Z,98543.41
2019-05-29T14:45:59.478Z,98553.06
2019-05-29T14:48:30.177Z,98555.86
2019-05-29T14:51:04.865Z,98560.87
2019-05-29T14:53:35.561Z,98560.05
2019-05-29T14:56:06.614Z,98562.23
2019-05-29T14:58:36.896Z,98565.20
2019-05-29T15:01:11.244Z,98568.80
2019-05-29T15:03:41.645Z,98577.40
2019-05-29T15:06:12.228Z,98586.61
2019-05-29T15:08:44.468Z,98579.81
2019-05-29T15:11:14.944Z,98584.66
2019-05-29T15:13:45.120Z,98597.16
2019-05-29T15:16:15.587Z,98600.02
2019-05-29T15:18:46.065Z,98599.19
2019-05-29T15:21:16.559Z,98607.39
2019-05-29T15:23:47.798Z,98610.88
2019-05-29T15:26:18.078Z,98609.56
2019-05-29T15:28:50.980Z,98603.17
2019-05-29T15:31:21.463Z,98602.80
2019-05-29T15:33:52.226Z,98599.42
2019-05-29T15:36:22.577Z,98602.40
2019-05-29T15:38:52.990Z,98612.53
2019-05-29T15:41:23.274Z,98609.48
2019-05-29T15:43:53.551Z,98613.25
2019-05-29T15:46:23.841Z,98602.72
2019-05-29T15:48:53.981Z,98603.36
2019-05-29T15:51:24.295Z,98611.88
2019-05-29T15:53:54.900Z,98599.83
2019-05-29T15:56:27.774Z,98610.75
2019-05-29T15:58:57.266Z,98606.58
2019-05-29T16:01:27.498Z,98603.47
2019-05-29T16:03:57.867Z,98603.69
2019-05-29T16:06:28.271Z,98600.60
2019-05-29T16:08:59.077Z,98603.89
2019-05-29T16:11:29.505Z,98603.47
2019-05-29T16:13:59.788Z,98607.72
2019-05-29T16:16:30.123Z,98612.21
2019-05-29T16:19:03.222Z,98606.84
2019-05-29T16:21:34.894Z,98598.97
2019-05-29T16:24:05.422Z,98605.96
2019-05-29T16:26:35.919Z,98606.67
2019-05-29T16:29:06.403Z,98611.07
2019-05-29T16:31:36.898Z,98609.66
2019-05-29T16:34:07.327Z,98612.56
2019-05-29T16:36:37.967Z,98607.18
2019-05-29T16:39:09.062Z,98615.09
2019-05-29T16:41:39.556Z,98611.94
2019-05-29T16:44:14.089Z,98614.61
2019-05-29T16:46:44.682Z,98624.27
2019-05-29T16:49:15.175Z,98619.27
2019-05-29T16:51:46.172Z,98628.20
2019-05-29T16:54:17.353Z,98626.50
2019-05-29T16:56:47.743Z,98634.34
2019-05-29T16:59:19.211Z,98634.28
2019-05-29T17:01:49.850Z,98639.34
2019-05-29T17:04:20.275Z,98638.86
2019-05-29T17:06:50.562Z,98641.58
2019-05-29T17:09:20.763Z,98638.20
2019-05-29T17:11:50.952Z,98649.05
2019-05-29T17:14:22.728Z,98652.89
2019-05-29T17:16:53.079Z,98650.06
2019-05-29T17:19:23.321Z,98649.83
2019-05-29T17:21:55.064Z,98654.23
2019-05-29T17:24:25.597Z,98654.27
2019-05-29T17:26:58.348Z,98650.19
2019-05-29T17:29:28.905Z,98655.63
2019-05-29T17:32:02.335Z,98656.80
2019-05-29T17:34:33.956Z,98660.34
2019-05-29T17:37:08.005Z,98655.38
2019-05-29T17:39:38.613Z,98661.80
2019-05-29T17:42:10.639Z,98662.90
2019-05-29T17:44:41.318Z,98656.34
2019-05-29T17:47:12.190Z,98655.50
2019-05-29T17:49:43.113Z,98660.20
2019-05-29T17:52:13.730Z,98661.39
2019-05-29T17:54:44.502Z,98658.08
2019-05-29T17:57:16.622Z,98666.31
2019-05-29T17:59:47.257Z,98670.20
2019-05-29T18:02:22.170Z,98665.28
2019-05-29T18:04:53.158Z,98668.35
2019-05-29T18:07:24.796Z,98670.47
2019-05-29T18:09:58.735Z,98669.32
2019-05-29T18:12:30.090Z,98667.55
2019-05-29T18:15:00.763Z,98676.36
2019-05-29T18:17:31.568Z,98675.34
2019-05-29T18:20:02.347Z,98688.58
2019-05-29T18:22:33.204Z,98689.78
2019-05-29T18:25:05.144Z,98696.08
2019-05-29T18:27:36.391Z,98695.59
2019-05-29T18:30:07.126Z,98700.08
2019-05-29T18:32:38.592Z,98703.62
2019-05-29T18:35:09.538Z,98693.73
2019-05-29T18:37:40.375Z,98699.70
2019-05-29T18:40:12.840Z,98697.54
2019-05-29T18:42:44.509Z,98701.94
2019-05-29T18:45:20.886Z,98699.30
2019-05-29T18:47:49.044Z,98696.52
2019-05-29T18:50:21.917Z,98698.11
2019-05-29T18:52:55.329Z,98703.81
2019-05-29T18:55:26.989Z,98704.42
2019-05-29T18:57:57.737Z,98709.84
2019-05-29T19:00:29.680Z,98707.96
2019-05-29T19:03:00.254Z,98713.14
2019-05-29T19:05:31.814Z,98718.61
2019-05-29T19:08:02.920Z,98723.79
2019-05-29T19:10:34.753Z,98722.50
2019-05-29T19:13:06.511Z,98728.92
2019-05-29T19:15:37.755Z,98727.39
2019-05-29T19:18:08.945Z,98736.60
2019-05-29T19:20:40.223Z,98736.93
2019-05-29T19:23:10.751Z,98743.77
2019-05-29T19:25:42.789Z,98745.39
2019-05-29T19:28:13.892Z,98746.50
2019-05-29T19:30:44.465Z,98747.66
2019-05-29T19:33:15.114Z,98761.02
2019-05-29T19:35:46.131Z,98764.41
2019-05-29T19:38:18.133Z,98760.36
2019-05-29T19:40:50.380Z,98765.87
2019-05-29T19:43:24.160Z,98772.70
2019-05-29T19:45:55.649Z,98774.45
2019-05-29T19:48:26.910Z,98779.95
2019-05-29T19:50:57.747Z,98786.54
2019-05-29T19:53:31.996Z,98780.64
2019-05-29T19:56:03.425Z,98784.47
2019-05-29T19:58:34.558Z,98791.48
2019-05-29T20:01:06.139Z,98793.67
2019-05-29T20:03:38.166Z,98806.99
2019-05-29T20:06:09.662Z,98815.20
2019-05-29T20:08:40.425Z,98820.10
2019-05-29T20:11:14.266Z,98821.45
2019-05-29T20:13:45.837Z,98808.00
2019-05-29T20:16:17.667Z,98829.88
2019-05-29T20:18:49.490Z,98833.95
2019-05-29T20:21:20.768Z,98837.02
2019-05-29T20:23:52.101Z,98842.95
2019-05-29T20:26:25.543Z,98844.86
2019-05-29T20:28:57.014Z,98847.59
2019-05-29T20:31:28.769Z,98850.57
2019-05-29T20:33:59.657Z,98855.45
2019-05-29T20:36:33.547Z,98859.79
2019-05-29T20:39:04.462Z,98854.16
2019-05-29T20:41:42.896Z,98857.95
2019-05-29T20:44:11.511Z,98860.94
2019-05-29T20:46:42.809Z,98866.34
2019-05-29T20:49:13.926Z,98868.77
2019-05-29T20:51:45.459Z,98871.47
2019-05-29T20:54:17.348Z,98868.77
2019-05-29T20:56:49.016Z,98877.96
2019-05-29T20:59:19.993Z,98875.01
2019-05-29T21:01:51.047Z,98879.59
2019-05-29T21:04:22.345Z,98875.01
2019-05-29T21:06:53.073Z,98877.45
2019-05-29T21:09:24.500Z,98876.64
2019-05-29T21:11:55.864Z,98878.01
2019-05-29T21:14:27.431Z,98874.74
2019-05-29T21:16:58.635Z,98879.07
2019-05-29T21:19:29.565Z,98883.92
2019-05-29T21:22:00.822Z,98886.90
2019-05-29T21:24:34.552Z,98883.95
2019-05-29T21:27:08.156Z,98879.08
2019-05-29T21:29:41.238Z,98877.45
2019-05-29T21:32:13.720Z,98880.16
2019-05-29T21:34:44.584Z,98879.34
2019-05-29T21:37:15.426Z,98889.30
2019-05-29T21:39:46.631Z,98888.22
2019-05-29T21:42:17.908Z,98892.25
2019-05-29T21:44:48.418Z,98893.09
2019-05-29T21:47:21.601Z,98889.28
2019-05-29T21:49:52.379Z,98894.69
2019-05-29T21:52:22.753Z,98899.25
2019-05-29T21:54:53.129Z,98896.27
2019-05-29T21:57:23.396Z,98893.29
2019-05-29T21:59:54.183Z,98895.98
2019-05-29T22:02:24.627Z,98902.14
2019-05-29T22:04:54.829Z,98899.99
2019-05-29T22:07:25.074Z,98902.92
2019-05-29T22:09:56.566Z,98894.58
2019-05-29T22:12:26.922Z,98894.85
2019-05-29T22:14:58.942Z,98891.82
2019-05-29T22:17:30.939Z,98897.98
2019-05-29T22:20:01.621Z,98906.33
2019-05-29T22:22:33.302Z,98913.30
2019-05-29T22:25:04.657Z,98909.78
2019-05-29T22:27:34.997Z,98914.08
2019-05-29T22:30:08.414Z,98918.36
2019-05-29T22:32:38.754Z,98916.45
2019-05-29T22:35:09.939Z,98914.55
2019-05-29T22:37:40.146Z,98915.62
2019-05-29T22:46:35.196Z,98921.48
2019-05-29T22:49:14.002Z,98921.43
2019-05-29T22:51:44.380Z,98924.39
2019-05-29T22:54:14.880Z,98923.30
2019-05-29T22:56:45.623Z,98923.80
2019-05-29T22:59:31.170Z,98917.62
2019-05-29T23:01:47.983Z,98918.14
2019-05-29T23:04:18.391Z,98911.64
2019-05-29T23:06:48.593Z,98919.98
2019-05-29T23:09:18.876Z,98909.69
2019-05-29T23:11:50.153Z,98916.67
2019-05-29T23:14:20.348Z,98923.09
2019-05-29T23:16:50.632Z,98918.51
2019-05-29T23:19:21.271Z,98920.93
2019-05-29T23:21:52.386Z,98915.81
2019-05-29T23:24:22.728Z,98918.51
2019-05-29T23:26:53.101Z,98912.84
2019-05-29T23:29:23.373Z,98908.48
2019-05-29T23:31:54.688Z,98904.72
2019-05-29T23:34:25.273Z,98907.94
2019-05-29T23:36:57.037Z,98908.42
2019-05-29T23:39:27.752Z,98912.96
2019-05-29T23:41:59.310Z,98911.03
2019-05-29T23:54:11.474Z,98913.51
2019-05-29T23:56:41.663Z,98923.91
2019-05-29T23:59:12.044Z,98921.48
